Aeroporto :
LOGIN :

Iscrizione | Disclaimer

   EN    FR    IT 

 










Sommario :    VFR   VFR Marginale   IFR   IFR Intensivo   IFR Molto Intensivo
Visibilità : 
Base nubi : 
>= 8 km
>= 3000ft
5 / 8 km
1000 / 3000 ft
1500m / 5 km
500 / 1000 ft
800 / 1500m
200 / 500 ft
< 800m
< 200 ft
Simboli :   Temporali  Nebbia  Neve Forte  Precipitazioni Forti  Vento > 20 kt
SIGMETs :   Varie  Temporali  Ghiacco  Turbolenza  Onda orograficha  Ceneri Vulcaniche






- Altitudine del aeroporto : 39 ft
- Codice IATA : TRS


LIPQ - Friuli Venezia Giulia Apt. Trieste

ULTIMO METAR :
  • 051450Z AUTO 18005KT 150V210 9999 NCD 26/16 Q1005

METARs OBSOLETI :
  • 051420Z AUTO 20007KT 9999 NCD 26/17 Q1005
  • 051350Z AUTO 22007KT 180V250 9999 NCD 27/16 Q1005
  • 051320Z AUTO 22008KT 9999 NCD 26/16 Q1006
  • 051250Z AUTO 19004KT 120V250 9999 NCD 27/17 Q1005
  • 051220Z AUTO VRB03KT 9999 NCD 26/17 Q1005
  • 051150Z AUTO 21005KT 140V260 9999 FEW085/// 26/17 Q1006

TAF TAF LIPQ
Valido dal 05 a 12 ore il 06 a 12 ore UTC


051100Z 0512/0612 10006KT 9999 SCT030 SCT070
BECMG 0512/0514 19010KT
BECMG 0515/0517 09005KT
TEMPO 0518/0524 TSRA
BECMG 0610/0612 19010KT



MetMap, La meteo Aeronautica in un colpo d'occhio ! - Copyright ORBIFLY Dicembre 2007 - Disclaimer

ORBIFLY MET'MAP TEAM :

Programmazione e sviluppo : Alexandra Zaïnal
Concezione : Baudouin d'Aumeries
Aiuto per la programmazione : Marc-Olivier Méhu
Supporto tecnico e logistico : Manuel Goepfert
Aiuto per la traduzione : Arnaldo La Scala

Contatto : metmap@orbifly.com




FONTI E CREDITI :

   NOAA